Western Neb. Rgnl/William B. Heilig Airport
KBFF : now visible

Airfield :











YOU CAN JOIN US ON...

 
LOGIN :

Register | Disclaimer

   EN    FR    IT 

 









Legend :    VFR   Marginal VFR   IFR   Intensive IFR   Very Intensive IFR
Visi :
Ceiling :
>= 8 km
>= 3000ft
5 to 8 km
1000 to 3000 ft
1500m to 5 km
500 to 1000 ft
800 to 1500m
200 to 500 ft
< 800m
< 200 ft
Symbols :   Thunderstorms  Fog  Heavy snow  Heavy precipitations  Wind > 20 kt






- Airport Elevation : 3967 ft
- IATA code : BFF


KBFF - Western Neb. Rgnl/William B. Heilig

CURRENT METAR :
  • 080653Z AUTO 36005KT 10SM CLR 02/M02 A2986 RMK AO2 SLP114 T00171017 401171067

EXPIRED METARs :
  • 080553Z AUTO 10003KT 10SM CLR 02/M02 A2987 RMK AO2 SLP123 T00171022 10094 20017 58002
  • 080453Z AUTO 00000KT 10SM CLR 04/M02 A2987 RMK AO2 SLP125 T00391017

TAF KBFF
Valid from the 08 at 06:00 until the 09 at 06:00 UTC


080526Z 0806/0906 VRB03KT P6SM BKN150
FM081900 24008KT P6SM BKN150
FM090200 31012KT P6SM BKN060



MET'MAP, your aeronautical weather chart ! - Copyright ORBIFLY December 2007 - Disclaimer

ORBIFLY MET'MAP TEAM :

Programming & Development : Alexandra Zaïnal
Concept & original design : Baudouin d'Aumeries
Assistance for programming : Marc-Olivier Méhu
Technical & hardware support : Manuel Goepfert

Contact : metmap@orbifly.com




SOURCES & CREDITS :

   NOAA       Earth
Advisory